Time;durP1;ratioP1;P1;durP2;ratioP2;P2;SDS_P1;SDS_P2;PMS_P1;PMS_P2;Temp;Humidity;BMP_temperature;BMP_pressure;BME280_temperature;BME280_humidity;BME280_pressure;Samples;Min_cycle;Max_cycle;Signal;HPM_P1;HPM_P2
2020/12/22 00:00:34;;;;;;;6.77;6.17;;;8.40;99.90;;;;;;4961731;28;20237;-79
2020/12/22 00:02:59;;;;;;;6.03;5.53;;;8.40;99.90;;;;;;4961231;28;20689;-78
2020/12/22 00:05:25;;;;;;;6.70;6.10;;;8.40;99.90;;;;;;4959957;28;20690;-79
2020/12/22 00:07:50;;;;;;;6.50;5.90;;;8.50;99.90;;;;;;4961621;28;20648;-78
2020/12/22 00:10:16;;;;;;;6.17;5.60;;;8.40;99.90;;;;;;4961622;28;20179;-79
2020/12/22 00:12:42;;;;;;;6.83;5.27;;;8.40;99.90;;;;;;4960439;28;20546;-79
2020/12/22 00:15:08;;;;;;;6.47;5.83;;;8.50;99.90;;;;;;4961233;28;20186;-79
2020/12/22 00:17:34;;;;;;;6.43;5.67;;;8.40;99.90;;;;;;4961837;28;20233;-79
2020/12/22 00:20:00;;;;;;;7.10;6.40;;;8.50;99.90;;;;;;4960187;28;20193;-79
2020/12/22 00:22:25;;;;;;;6.57;5.93;;;8.60;99.90;;;;;;4961072;28;20208;-79
2020/12/22 00:24:51;;;;;;;5.70;5.20;;;8.50;99.90;;;;;;4961121;28;20257;-77
2020/12/22 00:27:17;;;;;;;5.80;5.20;;;8.60;99.90;;;;;;4961441;28;20186;-79
2020/12/22 00:29:44;;;;;;;6.00;5.30;;;;;;;;;;4961389;28;20591;-77
2020/12/22 00:32:10;;;;;;;4.77;4.30;;;8.80;99.90;;;;;;4961766;28;20201;-78
2020/12/22 00:34:36;;;;;;;5.47;4.97;;;8.50;99.90;;;;;;4961537;28;20198;-77
2020/12/22 00:37:01;;;;;;;5.03;4.53;;;8.50;99.90;;;;;;4961509;28;20270;-77
2020/12/22 00:39:28;;;;;;;4.80;4.40;;;8.50;99.90;;;;;;4961438;28;20619;-79
2020/12/22 00:41:57;;;;;;;4.53;4.00;;;8.50;99.90;;;;;;4960122;28;20219;-79
2020/12/22 00:44:27;;;;;;;4.57;4.17;;;8.80;99.90;;;;;;4961340;28;20608;-78
2020/12/22 00:46:54;;;;;;;4.50;4.10;;;8.70;99.90;;;;;;4961578;28;20237;-78
2020/12/22 00:49:19;;;;;;;4.60;3.90;;;8.70;99.90;;;;;;4960923;28;20177;-78
2020/12/22 00:51:45;;;;;;;4.83;4.33;;;9.00;99.90;;;;;;4961474;28;20664;-79
2020/12/22 00:54:11;;;;;;;4.70;4.30;;;8.90;99.90;;;;;;4961297;28;20686;-79
2020/12/22 00:56:37;;;;;;;4.90;3.77;;;8.80;99.90;;;;;;4959494;28;20215;-79
2020/12/22 00:59:03;;;;;;;3.97;3.67;;;8.80;99.90;;;;;;4961113;28;20186;-78
2020/12/22 01:01:30;;;;;;;3.70;3.40;;;8.80;99.90;;;;;;4962086;28;20262;-78
2020/12/22 01:03:59;;;;;;;3.70;3.40;;;8.70;99.90;;;;;;4961384;28;20718;-78
2020/12/22 01:06:26;;;;;;;4.43;3.87;;;8.70;99.90;;;;;;4989718;23;20235;-79
2020/12/22 01:08:52;;;;;;;4.13;3.83;;;8.70;99.90;;;;;;4980306;28;20179;-79
2020/12/22 01:11:19;;;;;;;4.07;3.70;;;8.70;99.90;;;;;;4975127;28;20179;-80
2020/12/22 01:13:45;;;;;;;3.23;2.93;;;8.70;99.90;;;;;;4972429;28;20175;-80
2020/12/22 01:16:11;;;;;;;3.10;2.80;;;8.80;99.90;;;;;;4980208;28;20208;-80
2020/12/22 01:18:38;;;;;;;3.20;3.00;;;8.80;99.90;;;;;;4978507;28;20179;-79
2020/12/22 01:21:04;;;;;;;2.90;2.60;;;8.80;99.90;;;;;;4979977;28;20179;-79
2020/12/22 01:23:29;;;;;;;2.93;2.73;;;8.80;99.90;;;;;;4974426;28;20267;-79
2020/12/22 01:25:55;;;;;;;2.57;2.37;;;8.80;99.90;;;;;;4979155;28;20260;-79
2020/12/22 01:28:20;;;;;;;2.80;2.50;;;8.80;99.90;;;;;;4978290;28;20186;-80
2020/12/22 01:30:46;;;;;;;2.70;2.50;;;8.80;99.90;;;;;;4980007;28;20237;-79
2020/12/22 01:33:12;;;;;;;2.37;2.10;;;8.90;99.90;;;;;;4979868;28;20183;-80
2020/12/22 01:35:37;;;;;;;2.60;2.37;;;8.90;99.90;;;;;;4979688;28;20338;-79
2020/12/22 01:38:03;;;;;;;4.77;2.10;;;8.90;99.90;;;;;;4979951;28;20334;-80
2020/12/22 01:40:29;;;;;;;2.27;2.00;;;8.90;99.90;;;;;;4979320;28;20187;-80
2020/12/22 01:42:55;;;;;;;2.77;2.10;;;8.90;99.90;;;;;;4980113;28;20262;-80
2020/12/22 01:45:21;;;;;;;2.63;2.20;;;8.90;99.90;;;;;;4979886;28;20214;-79
2020/12/22 01:47:49;;;;;;;2.00;1.90;;;8.80;99.90;;;;;;4978215;28;20230;-80
2020/12/22 01:50:17;;;;;;;2.53;1.97;;;8.90;99.90;;;;;;4979627;28;20180;-79
2020/12/22 01:52:44;;;;;;;2.50;2.30;;;8.90;99.90;;;;;;4977792;28;20186;-80
2020/12/22 01:55:09;;;;;;;4.03;2.17;;;9.00;99.90;;;;;;4978307;28;20210;-79
2020/12/22 01:57:36;;;;;;;2.07;1.97;;;9.00;99.90;;;;;;4978962;28;20187;-81
2020/12/22 02:00:03;;;;;;;2.40;1.93;;;;;;;;;;4973317;28;20187;-79
2020/12/22 02:02:30;;;;;;;2.30;1.97;;;;;;;;;;4972427;28;20180;-80
2020/12/22 02:04:56;;;;;;;2.10;1.83;;;;;;;;;;4978891;28;20203;-79
2020/12/22 02:07:23;;;;;;;2.37;2.17;;;;;;;;;;4979159;28;20175;-80
2020/12/22 02:09:49;;;;;;;2.50;2.00;;;;;;;;;;4977840;28;20222;-80
2020/12/22 02:12:19;;;;;;;2.90;2.53;;;;;;;;;;4977954;28;20546;-79
2020/12/22 02:14:45;;;;;;;2.20;2.00;;;;;;;;;;4961396;28;20191;-80
2020/12/22 02:17:11;;;;;;;2.47;2.27;;;;;;;;;;4978374;28;20590;-79
2020/12/22 02:19:37;;;;;;;2.27;2.07;;;;;;;;;;4977450;28;20193;-80
2020/12/22 02:22:04;;;;;;;2.30;2.10;;;;;;;;;;4979436;28;20282;-80
2020/12/22 02:24:33;;;;;;;2.50;2.30;;;9.40;99.90;;;;;;4978230;28;20210;-80
2020/12/22 02:27:00;;;;;;;2.17;2.00;;;9.40;99.90;;;;;;4978260;28;20225;-79
2020/12/22 02:29:27;;;;;;;2.17;2.00;;;9.40;99.90;;;;;;4978567;28;20187;-80
2020/12/22 02:31:53;;;;;;;4.20;2.23;;;9.40;99.90;;;;;;4977194;28;20176;-80
2020/12/22 02:34:18;;;;;;;1.80;1.70;;;9.40;99.90;;;;;;4977210;28;20227;-80
2020/12/22 02:36:45;;;;;;;2.33;2.13;;;9.40;99.90;;;;;;4979018;28;20210;-81
2020/12/22 02:39:10;;;;;;;2.20;2.00;;;9.40;99.90;;;;;;4979144;28;20259;-80
2020/12/22 02:41:36;;;;;;;2.00;1.90;;;9.50;99.90;;;;;;4979553;28;20206;-80
2020/12/22 02:44:03;;;;;;;2.10;1.90;;;9.50;99.90;;;;;;4978846;28;20188;-80
2020/12/22 02:46:28;;;;;;;2.43;1.97;;;9.50;99.90;;;;;;4974068;28;20200;-80
2020/12/22 02:48:54;;;;;;;1.70;1.60;;;9.50;99.90;;;;;;4974909;28;20772;-80
2020/12/22 02:51:20;;;;;;;1.80;1.70;;;9.60;99.90;;;;;;4976824;28;20271;-80
2020/12/22 02:53:45;;;;;;;1.70;1.60;;;9.60;99.90;;;;;;4978272;28;20187;-81
2020/12/22 02:56:11;;;;;;;1.77;1.67;;;9.60;99.90;;;;;;4977356;28;20716;-80
2020/12/22 02:58:37;;;;;;;1.50;1.40;;;9.60;99.90;;;;;;4978361;28;20182;-80
2020/12/22 03:01:03;;;;;;;1.50;1.40;;;9.60;99.90;;;;;;4965749;28;20191;-80
2020/12/22 03:03:29;;;;;;;1.50;1.40;;;9.70;99.90;;;;;;4955402;28;20185;-80
2020/12/22 03:05:54;;;;;;;2.33;1.50;;;9.70;99.90;;;;;;4945712;28;20212;-80
2020/12/22 03:08:21;;;;;;;1.83;1.53;;;9.60;99.90;;;;;;4968511;28;20186;-80
2020/12/22 03:10:47;;;;;;;2.10;1.50;;;9.70;99.90;;;;;;4979963;28;20211;-80
2020/12/22 03:13:13;;;;;;;2.80;1.50;;;9.70;99.90;;;;;;4982474;28;20180;-80
2020/12/22 03:15:39;;;;;;;2.67;1.57;;;9.70;99.90;;;;;;4982650;28;20205;-80
2020/12/22 03:18:05;;;;;;;1.40;1.30;;;9.70;99.90;;;;;;4982446;28;20183;-80
2020/12/22 03:20:31;;;;;;;2.17;1.60;;;9.70;99.90;;;;;;4981598;28;20565;-81
2020/12/22 03:22:57;;;;;;;1.37;1.27;;;9.70;99.90;;;;;;4982104;28;20283;-80
2020/12/22 03:25:23;;;;;;;2.23;1.30;;;9.70;99.90;;;;;;4981263;28;20218;-80
2020/12/22 03:27:48;;;;;;;1.40;1.30;;;9.80;99.90;;;;;;4981558;28;20174;-80
2020/12/22 03:30:15;;;;;;;2.43;1.60;;;9.80;99.90;;;;;;4981111;28;20239;-80
2020/12/22 03:32:42;;;;;;;2.07;1.80;;;9.80;99.90;;;;;;4981700;28;20206;-80
2020/12/22 03:35:09;;;;;;;1.60;1.50;;;9.70;99.90;;;;;;4982054;28;20736;-80
2020/12/22 03:37:36;;;;;;;3.40;1.50;;;9.70;99.90;;;;;;4981988;28;20173;-80
2020/12/22 03:40:04;;;;;;;1.73;1.53;;;9.70;99.90;;;;;;4979631;28;20188;-80
2020/12/22 03:42:31;;;;;;;1.60;1.50;;;9.70;99.90;;;;;;4981398;28;20229;-80
2020/12/22 03:44:57;;;;;;;1.80;1.60;;;9.60;99.90;;;;;;4981744;28;20615;-81
2020/12/22 03:47:23;;;;;;;2.17;1.97;;;9.70;99.90;;;;;;4981361;28;20180;-80
2020/12/22 03:49:51;;;;;;;1.90;1.80;;;9.60;99.90;;;;;;4980798;28;20185;-79
2020/12/22 03:52:17;;;;;;;1.50;1.40;;;9.60;99.90;;;;;;4981555;28;20539;-81
2020/12/22 03:54:43;;;;;;;1.57;1.47;;;9.70;99.90;;;;;;4980924;28;20184;-80
2020/12/22 03:57:09;;;;;;;1.60;1.50;;;9.60;99.90;;;;;;4980851;28;20194;-80
2020/12/22 03:59:35;;;;;;;1.73;1.53;;;9.70;99.90;;;;;;4980475;28;20218;-80
2020/12/22 04:02:01;;;;;;;3.33;1.60;;;9.70;99.90;;;;;;4972026;28;20192;-80
2020/12/22 04:04:27;;;;;;;1.60;1.50;;;9.60;99.90;;;;;;4981157;28;20196;-80
2020/12/22 04:06:53;;;;;;;1.47;1.37;;;9.70;99.90;;;;;;4979612;28;20713;-79
2020/12/22 04:09:20;;;;;;;2.50;1.93;;;9.70;99.90;;;;;;4980494;28;20183;-80
2020/12/22 04:11:47;;;;;;;2.70;2.10;;;9.60;99.90;;;;;;4981078;28;20179;-80
2020/12/22 04:14:13;;;;;;;3.60;2.37;;;9.60;99.90;;;;;;4981220;28;20179;-80
2020/12/22 04:16:39;;;;;;;4.17;2.90;;;9.60;99.90;;;;;;4979048;28;20611;-80
2020/12/22 04:19:06;;;;;;;4.20;2.20;;;9.60;99.90;;;;;;4980269;28;20172;-80
2020/12/22 04:21:32;;;;;;;2.13;1.93;;;9.70;99.90;;;;;;4980742;28;20187;-80
2020/12/22 04:23:58;;;;;;;2.60;2.40;;;9.60;99.90;;;;;;4980601;28;20196;-80
2020/12/22 04:26:25;;;;;;;2.07;1.87;;;9.60;99.90;;;;;;4981067;28;20208;-80
2020/12/22 04:28:51;;;;;;;2.17;2.07;;;9.60;99.90;;;;;;4979981;28;20681;-80
2020/12/22 04:31:21;;;;;;;3.07;2.10;;;9.70;99.90;;;;;;4979658;28;20267;-80
2020/12/22 04:33:53;;;;;;;1.63;1.53;;;9.60;99.90;;;;;;4980393;28;20277;-80
2020/12/22 04:36:20;;;;;;;3.10;1.40;;;9.60;99.90;;;;;;4978571;28;20207;-80
2020/12/22 04:38:46;;;;;;;1.47;1.37;;;9.60;99.90;;;;;;4979126;28;20658;-80
2020/12/22 04:41:13;;;;;;;1.47;1.37;;;9.70;99.90;;;;;;4981925;28;20185;-80
2020/12/22 04:43:43;;;;;;;1.87;1.77;;;9.70;99.90;;;;;;4979981;28;20182;-81
2020/12/22 04:46:10;;;;;;;1.40;1.23;;;9.70;99.90;;;;;;4980686;28;20211;-80
2020/12/22 04:48:38;;;;;;;1.70;1.60;;;9.70;99.90;;;;;;4981247;28;20544;-80
2020/12/22 04:51:09;;;;;;;1.70;1.60;;;9.70;99.90;;;;;;4980974;28;20208;-80
2020/12/22 04:53:37;;;;;;;1.50;1.40;;;9.70;99.90;;;;;;4980567;28;20195;-80
2020/12/22 04:56:06;;;;;;;3.47;1.50;;;9.70;99.90;;;;;;4976495;28;20205;-80
2020/12/22 04:58:33;;;;;;;1.53;1.43;;;9.70;99.90;;;;;;4963544;28;20245;-80
2020/12/22 05:00:59;;;;;;;2.40;1.50;;;9.70;99.90;;;;;;4962944;28;20181;-80
2020/12/22 05:03:25;;;;;;;1.63;1.40;;;9.70;99.90;;;;;;4960345;28;20191;-80
2020/12/22 05:05:53;;;;;;;1.60;1.50;;;9.70;99.90;;;;;;4965361;28;20593;-80
2020/12/22 05:08:19;;;;;;;2.70;1.70;;;9.70;99.90;;;;;;4976099;28;20589;-82
2020/12/22 05:10:49;;;;;;;1.90;1.40;;;9.60;99.90;;;;;;4970281;28;20267;-79
2020/12/22 05:13:16;;;;;;;1.70;1.57;;;9.60;99.90;;;;;;4979036;28;20165;-80
2020/12/22 05:15:52;;;;;;;2.97;1.57;;;9.70;99.90;;;;;;4979138;28;20199;-80
2020/12/22 05:18:23;;;;;;;2.83;1.80;;;9.60;99.90;;;;;;4980125;28;20247;-80
2020/12/22 05:20:49;;;;;;;5.37;2.63;;;9.70;99.90;;;;;;4980012;28;20180;-80
2020/12/22 05:23:19;;;;;;;2.13;1.63;;;9.60;99.90;;;;;;4978056;28;20191;-80
2020/12/22 05:25:47;;;;;;;2.83;2.30;;;9.70;99.90;;;;;;4978426;28;20747;-80
2020/12/22 05:28:15;;;;;;;3.20;2.33;;;9.70;99.90;;;;;;4978257;28;20232;-80
2020/12/22 05:30:46;;;;;;;2.20;1.70;;;9.70;99.90;;;;;;4979612;28;20187;-80
2020/12/22 05:33:12;;;;;;;2.40;2.10;;;9.70;99.90;;;;;;4979534;28;20172;-80
2020/12/22 05:35:39;;;;;;;2.37;2.17;;;9.70;99.90;;;;;;4979438;28;20276;-80
2020/12/22 05:38:06;;;;;;;2.23;1.80;;;9.60;99.90;;;;;;4977704;28;20183;-81
2020/12/22 05:40:38;;;;;;;1.97;1.77;;;9.70;99.90;;;;;;4979242;28;20187;-80
2020/12/22 05:43:05;;;;;;;1.50;1.40;;;9.70;99.90;;;;;;4979104;28;20206;-79
2020/12/22 05:45:35;;;;;;;1.57;1.47;;;9.70;99.90;;;;;;4978775;28;20212;-80
2020/12/22 05:48:01;;;;;;;1.80;1.30;;;9.80;99.90;;;;;;4979822;28;20185;-80
2020/12/22 05:50:27;;;;;;;1.40;1.30;;;9.80;99.90;;;;;;4979782;28;20179;-81
2020/12/22 05:52:55;;;;;;;1.80;1.70;;;9.80;99.90;;;;;;4979652;28;20192;-80
2020/12/22 05:55:31;;;;;;;2.63;1.80;;;9.80;99.90;;;;;;4979644;28;20222;-81
2020/12/22 05:58:13;;;;;;;2.47;1.47;;;9.80;99.90;;;;;;4980690;28;20247;-80
2020/12/22 06:00:42;;;;;;;1.97;1.37;;;9.80;99.90;;;;;;4970595;28;20557;-80
2020/12/22 06:03:15;;;;;;;1.33;1.10;;;9.80;99.90;;;;;;4978491;28;20191;-81
2020/12/22 06:05:42;;;;;;;2.43;1.40;;;9.90;99.90;;;;;;4978840;28;20227;-80
2020/12/22 06:08:11;;;;;;;3.07;1.77;;;9.90;99.90;;;;;;4978725;28;20183;-81
2020/12/22 06:10:38;;;;;;;1.73;1.63;;;9.90;99.90;;;;;;4978340;28;20259;-80
2020/12/22 06:13:05;;;;;;;1.50;1.30;;;10.00;99.90;;;;;;4977046;28;20183;-81
2020/12/22 06:15:32;;;;;;;1.20;1.10;;;10.00;99.90;;;;;;4978437;28;20239;-80
2020/12/22 06:17:58;;;;;;;1.83;1.07;;;10.00;99.90;;;;;;4978666;28;20176;-80
2020/12/22 06:20:26;;;;;;;1.93;1.10;;;10.00;99.90;;;;;;4978213;28;20184;-80
2020/12/22 06:23:03;;;;;;;1.30;1.20;;;10.00;99.90;;;;;;4978146;28;20206;-80
2020/12/22 06:25:30;;;;;;;1.83;1.27;;;10.10;99.90;;;;;;4977757;28;20214;-81
2020/12/22 06:27:56;;;;;;;1.97;1.13;;;10.10;99.90;;;;;;4977918;28;20663;-81
2020/12/22 06:30:36;;;;;;;1.43;1.27;;;10.10;99.90;;;;;;4978443;28;20196;-80
2020/12/22 06:33:26;;;;;;;1.50;1.30;;;10.10;99.90;;;;;;4978267;28;20256;-81
2020/12/22 06:36:14;;;;;;;1.37;1.27;;;10.10;99.90;;;;;;4978293;28;20267;-80
2020/12/22 06:38:47;;;;;;;1.63;1.53;;;10.10;99.90;;;;;;4978467;28;20207;-80
2020/12/22 06:41:34;;;;;;;1.73;1.57;;;10.10;99.90;;;;;;4977038;28;20187;-81
2020/12/22 06:44:13;;;;;;;1.40;1.30;;;10.10;99.90;;;;;;4978434;28;20180;-81
2020/12/22 06:46:42;;;;;;;1.77;1.40;;;10.00;99.90;;;;;;4978305;28;20200;-81
2020/12/22 06:49:09;;;;;;;1.50;1.40;;;10.00;99.90;;;;;;4977918;28;20179;-80
2020/12/22 06:51:39;;;;;;;1.83;1.33;;;10.00;99.90;;;;;;4978213;28;20208;-81
2020/12/22 06:54:28;;;;;;;1.40;1.30;;;10.00;99.90;;;;;;4978452;28;20180;-81
2020/12/22 06:56:54;;;;;;;1.70;1.50;;;10.00;99.90;;;;;;4978087;28;20208;-81
2020/12/22 06:59:47;;;;;;;2.00;1.60;;;10.00;99.90;;;;;;4977147;28;20210;-81
2020/12/22 07:02:30;;;;;;;2.60;1.63;;;10.10;99.90;;;;;;4964888;28;20184;-81
2020/12/22 07:04:57;;;;;;;1.23;1.13;;;10.10;99.90;;;;;;4965892;28;20557;-81
2020/12/22 07:07:23;;;;;;;2.10;1.90;;;10.00;99.90;;;;;;4986656;23;20261;-81
2020/12/22 07:09:58;;;;;;;3.07;1.90;;;10.00;99.90;;;;;;4956309;28;20192;-80
2020/12/22 07:12:26;;;;;;;1.63;1.53;;;9.90;99.90;;;;;;4954955;28;20195;-79
2020/12/22 07:14:51;;;;;;;3.03;1.87;;;10.00;99.90;;;;;;4961414;28;20652;-80
2020/12/22 07:17:19;;;;;;;2.07;1.50;;;10.00;99.90;;;;;;4950991;28;20625;-80
2020/12/22 07:19:47;;;;;;;2.80;1.50;;;10.10;99.90;;;;;;4939112;28;20245;-80
2020/12/22 07:22:17;;;;;;;1.70;1.50;;;10.10;99.90;;;;;;4954901;28;20180;-80
2020/12/22 07:24:43;;;;;;;1.50;1.40;;;10.20;99.90;;;;;;4947578;28;20217;-79
2020/12/22 07:27:10;;;;;;;3.57;1.70;;;10.20;99.90;;;;;;4942119;28;20212;-80
2020/12/22 07:29:40;;;;;;;1.67;1.57;;;10.30;99.90;;;;;;4939664;28;20264;-80
2020/12/22 07:32:06;;;;;;;1.80;1.70;;;10.30;99.90;;;;;;4941676;28;20196;-79
2020/12/22 07:34:32;;;;;;;1.33;1.23;;;10.30;99.90;;;;;;4948513;28;20655;-80
2020/12/22 07:37:10;;;;;;;1.60;1.50;;;10.30;99.90;;;;;;4953961;28;20236;-79
2020/12/22 07:39:38;;;;;;;1.33;1.23;;;10.30;99.90;;;;;;4957668;28;20181;-80
2020/12/22 07:42:17;;;;;;;2.00;1.27;;;10.30;99.90;;;;;;4956415;28;20558;-79
2020/12/22 07:44:45;;;;;;;1.50;1.40;;;10.40;99.90;;;;;;4948099;28;20201;-80
2020/12/22 07:47:12;;;;;;;1.57;1.23;;;10.40;99.90;;;;;;4955754;28;20200;-80
2020/12/22 07:49:40;;;;;;;1.50;1.30;;;10.40;99.90;;;;;;4956621;28;20181;-79
2020/12/22 07:52:06;;;;;;;1.53;1.43;;;10.40;99.90;;;;;;4958636;28;20200;-81
2020/12/22 07:54:32;;;;;;;1.80;1.40;;;10.40;99.90;;;;;;4960910;28;20671;-79
2020/12/22 07:57:00;;;;;;;1.50;1.40;;;10.40;99.90;;;;;;4960015;28;20205;-80
2020/12/22 07:59:26;;;;;;;1.90;1.40;;;10.40;99.90;;;;;;4961054;28;20252;-80
2020/12/22 08:01:53;;;;;;;2.40;1.50;;;10.50;99.90;;;;;;4960708;28;20181;-81
2020/12/22 08:04:26;;;;;;;2.57;1.90;;;10.50;99.90;;;;;;4960952;28;20169;-81
2020/12/22 08:06:53;;;;;;;2.43;1.33;;;10.50;99.90;;;;;;4960232;28;20216;-77
2020/12/22 08:09:36;;;;;;;2.30;1.47;;;10.50;99.90;;;;;;4959429;28;20244;-80
2020/12/22 08:12:06;;;;;;;1.30;1.20;;;10.60;99.90;;;;;;4959116;28;20658;-79
2020/12/22 08:14:41;;;;;;;1.50;1.37;;;10.60;99.90;;;;;;4960701;28;20636;-79
2020/12/22 08:17:13;;;;;;;2.17;1.43;;;10.70;99.90;;;;;;4960360;28;20223;-79
2020/12/22 08:19:40;;;;;;;2.23;1.30;;;10.70;99.90;;;;;;4960386;28;20192;-80
2020/12/22 08:22:06;;;;;;;1.47;1.37;;;10.70;99.90;;;;;;4960206;28;20177;-79
2020/12/22 08:24:36;;;;;;;2.07;1.30;;;10.70;99.90;;;;;;4959599;28;20181;-79
2020/12/22 08:27:04;;;;;;;2.57;2.27;;;10.70;99.90;;;;;;4959867;28;20212;-79
2020/12/22 08:29:30;;;;;;;1.30;1.10;;;10.70;99.90;;;;;;4960108;28;20177;-79
2020/12/22 08:31:59;;;;;;;2.43;1.70;;;10.70;99.90;;;;;;4959018;28;20641;-79
2020/12/22 08:34:25;;;;;;;5.83;2.23;;;10.80;99.90;;;;;;4960006;28;20316;-80
2020/12/22 08:36:51;;;;;;;2.20;1.80;;;10.70;99.90;;;;;;4959754;28;20543;-80
2020/12/22 08:39:22;;;;;;;2.23;2.03;;;10.80;99.90;;;;;;4960185;28;20181;-80
2020/12/22 08:41:50;;;;;;;1.97;1.60;;;10.80;99.90;;;;;;4960809;28;20182;-79
2020/12/22 08:44:17;;;;;;;1.50;1.40;;;10.80;99.90;;;;;;4958677;28;20204;-79
2020/12/22 08:46:43;;;;;;;3.50;1.50;;;10.80;99.90;;;;;;4960318;28;20197;-79
2020/12/22 08:49:17;;;;;;;3.47;1.40;;;10.80;99.90;;;;;;4959730;28;20662;-79
2020/12/22 08:51:44;;;;;;;1.20;1.10;;;10.90;99.90;;;;;;4960094;28;20188;-79
2020/12/22 08:54:12;;;;;;;2.00;1.43;;;10.80;99.90;;;;;;4960010;28;20177;-79
2020/12/22 08:56:38;;;;;;;3.63;2.30;;;10.90;99.90;;;;;;4959756;28;20225;-79
2020/12/22 08:59:05;;;;;;;2.03;1.80;;;10.90;99.90;;;;;;4960027;28;20187;-78
2020/12/22 09:01:43;;;;;;;1.70;1.20;;;10.90;99.90;;;;;;4960150;28;20212;-80
2020/12/22 09:04:10;;;;;;;2.37;1.67;;;10.90;99.90;;;;;;4959534;28;20651;-80
2020/12/22 09:06:44;;;;;;;3.03;1.43;;;10.90;99.90;;;;;;4959993;28;20205;-80
2020/12/22 09:09:16;;;;;;;1.37;0.90;;;10.90;99.90;;;;;;4959379;28;20229;-80
2020/12/22 09:11:43;;;;;;;2.43;1.13;;;11.00;99.90;;;;;;4959847;28;20625;-78
2020/12/22 09:14:33;;;;;;;1.10;0.87;;;11.00;99.90;;;;;;4959463;28;20177;-81
2020/12/22 09:16:59;;;;;;;1.27;1.17;;;11.10;99.90;;;;;;4959649;28;20225;-80
2020/12/22 09:19:29;;;;;;;0.70;0.70;;;11.20;99.90;;;;;;4959512;28;20193;-80
2020/12/22 09:21:59;;;;;;;1.17;0.90;;;11.30;99.90;;;;;;4959414;28;20260;-81
2020/12/22 09:24:25;;;;;;;1.90;0.90;;;11.40;99.90;;;;;;4959386;28;20173;-79
2020/12/22 09:26:56;;;;;;;1.20;1.10;;;11.40;99.90;;;;;;4959706;28;20208;-80
2020/12/22 09:29:24;;;;;;;0.80;0.70;;;;;;;;;;4959957;28;20196;-80
2020/12/22 09:31:50;;;;;;;1.13;0.70;;;12.30;99.90;;;;;;4957834;28;20178;-80
2020/12/22 09:34:16;;;;;;;1.10;1.00;;;11.60;99.90;;;;;;4959047;28;20564;-79
2020/12/22 09:36:42;;;;;;;0.60;0.53;;;;;;;;;;4958660;28;20292;-80
2020/12/22 09:39:09;;;;;;;1.07;0.90;;;;;;;;;;4959127;28;20209;-80
2020/12/22 09:41:42;;;;;;;0.93;0.90;;;;;;;;;;4959093;28;20188;-80
2020/12/22 09:44:08;;;;;;;1.83;1.20;;;11.80;99.90;;;;;;4959857;28;20525;-80
2020/12/22 09:46:34;;;;;;;0.97;0.87;;;11.80;99.90;;;;;;4959399;28;20216;-79
2020/12/22 09:49:00;;;;;;;0.77;0.60;;;11.80;99.90;;;;;;4958298;28;20216;-80
2020/12/22 09:51:26;;;;;;;0.80;0.70;;;11.80;99.90;;;;;;4959280;28;20180;-80
2020/12/22 09:53:52;;;;;;;0.70;0.70;;;11.90;99.90;;;;;;4959334;28;20182;-80
2020/12/22 09:56:18;;;;;;;1.03;0.80;;;11.90;99.90;;;;;;4959007;28;20348;-80
2020/12/22 09:58:43;;;;;;;1.00;0.67;;;11.90;99.90;;;;;;4958752;28;20730;-80
2020/12/22 10:01:09;;;;;;;0.70;0.70;;;11.90;99.90;;;;;;4958329;28;20179;-80
2020/12/22 10:03:35;;;;;;;0.70;0.70;;;11.90;99.90;;;;;;4959007;28;20224;-80
2020/12/22 10:06:00;;;;;;;0.67;0.50;;;12.00;99.90;;;;;;4956584;28;20300;-79
2020/12/22 10:08:26;;;;;;;0.73;0.60;;;12.00;99.90;;;;;;4968118;28;20174;-80
2020/12/22 10:10:52;;;;;;;0.97;0.60;;;12.10;99.90;;;;;;4964002;28;20232;-80
2020/12/22 10:13:18;;;;;;;0.90;0.53;;;;;;;;;;4958810;28;20174;-80
2020/12/22 10:15:45;;;;;;;0.50;0.50;;;;;;;;;;4956974;28;20203;-79
2020/12/22 10:18:11;;;;;;;1.23;0.40;;;;;;;;;;4958625;28;20181;-80
2020/12/22 10:20:37;;;;;;;1.70;0.60;;;;;;;;;;4957409;28;20189;-80
2020/12/22 10:23:04;;;;;;;1.20;0.50;;;;;;;;;;4954625;28;20703;-80
2020/12/22 10:25:30;;;;;;;0.80;0.60;;;;;;;;;;4947489;28;20197;-79
2020/12/22 10:27:57;;;;;;;0.50;0.50;;;;;;;;;;4945215;28;20185;-80
2020/12/22 10:30:23;;;;;;;0.63;0.63;;;;;;;;;;4954010;28;20184;-80
2020/12/22 10:32:50;;;;;;;0.70;0.60;;;;;;;;;;4950346;28;20190;-80
2020/12/22 10:35:16;;;;;;;0.60;0.60;;;;;;;;;;4950703;28;20193;-79
2020/12/22 10:37:43;;;;;;;0.70;0.70;;;;;;;;;;4944574;28;20242;-80
2020/12/22 10:40:09;;;;;;;1.33;0.50;;;;;;;;;;4951200;28;20184;-79
2020/12/22 10:42:35;;;;;;;1.07;0.60;;;;;;;;;;4954016;28;20191;-79
2020/12/22 10:45:01;;;;;;;0.60;0.40;;;;;;;;;;4954744;28;20297;-79
2020/12/22 10:47:27;;;;;;;0.60;0.60;;;;;;;;;;4951534;28;20278;-79
2020/12/22 10:49:53;;;;;;;1.10;0.70;;;;;;;;;;4950789;28;20192;-80
2020/12/22 10:52:19;;;;;;;0.50;0.50;;;;;;;;;;4957705;28;20179;-78
2020/12/22 10:54:45;;;;;;;0.80;0.70;;;;;;;;;;4949086;28;20282;-80
2020/12/22 10:57:11;;;;;;;0.90;0.90;;;;;;;;;;4953740;28;20229;-78
2020/12/22 10:59:38;;;;;;;0.70;0.70;;;;;;;;;;4945569;28;20326;-79
2020/12/22 11:02:04;;;;;;;0.43;0.40;;;;;;;;;;4955646;28;20228;-80
2020/12/22 11:04:31;;;;;;;0.73;0.50;;;;;;;;;;4953991;28;20343;-80
2020/12/22 11:09:23;;;;;;;1.50;0.70;;;;;;;;;;4945710;28;20185;-80
2020/12/22 11:11:49;;;;;;;0.77;0.63;;;;;;;;;;4948680;28;20236;-80
2020/12/22 11:14:16;;;;;;;1.03;0.60;;;;;;;;;;4945984;28;20193;-81
2020/12/22 11:16:42;;;;;;;0.40;0.40;;;;;;;;;;4947067;28;20233;-82
2020/12/22 11:19:09;;;;;;;0.67;0.40;;;;;;;;;;4948986;28;20259;-80
2020/12/22 11:21:35;;;;;;;0.50;0.50;;;;;;;;;;4955973;28;20234;-82
2020/12/22 11:24:01;;;;;;;1.50;0.57;;;;;;;;;;4949045;28;20195;-82
2020/12/22 11:26:28;;;;;;;0.60;0.40;;;;;;;;;;4956975;28;20221;-79
2020/12/22 11:28:54;;;;;;;1.23;0.60;;;;;;;;;;4949072;28;20191;-80
2020/12/22 11:31:21;;;;;;;0.33;0.33;;;;;;;;;;4948641;28;20188;-82
2020/12/22 11:33:47;;;;;;;0.73;0.40;;;;;;;;;;4950724;28;20282;-80
2020/12/22 11:36:15;;;;;;;0.60;0.50;;;;;;;;;;4951133;28;20217;-80
2020/12/22 11:38:42;;;;;;;0.83;0.50;;;;;;;;;;4949572;28;20187;-80
2020/12/22 11:41:08;;;;;;;0.53;0.30;;;;;;;;;;4952615;28;20200;-80
2020/12/22 11:43:34;;;;;;;0.20;0.20;;;;;;;;;;4956081;28;20269;-80
2020/12/22 11:46:00;;;;;;;0.87;0.40;;;;;;;;;;4953218;28;20579;-79
2020/12/22 11:48:27;;;;;;;0.20;0.20;;;;;;;;;;4957182;28;20191;-80
2020/12/22 11:50:54;;;;;;;0.30;0.30;;;;;;;;;;4952811;28;20184;-80
2020/12/22 11:53:20;;;;;;;0.47;0.40;;;;;;;;;;4959241;28;20188;-81
2020/12/22 11:55:47;;;;;;;1.03;0.40;;;;;;;;;;4956207;28;20221;-81
2020/12/22 11:58:13;;;;;;;0.70;0.40;;;;;;;;;;4952432;28;20210;-79
2020/12/22 12:00:39;;;;;;;0.30;0.27;;;;;;;;;;4949008;28;20656;-80
2020/12/22 12:03:06;;;;;;;0.30;0.30;;;;;;;;;;4951648;28;20194;-80
2020/12/22 12:05:32;;;;;;;0.43;0.30;;;;;;;;;;4953414;28;20879;-80
2020/12/22 12:07:59;;;;;;;0.47;0.40;;;;;;;;;;4953516;28;20655;-79
2020/12/22 12:10:25;;;;;;;1.07;0.50;;;;;;;;;;4947724;28;20273;-80
2020/12/22 12:12:50;;;;;;;1.63;0.33;;;12.30;99.90;;;;;;4949945;28;20663;-80
2020/12/22 12:15:16;;;;;;;0.30;0.30;;;14.90;99.90;;;;;;4956921;28;20192;-79
2020/12/22 12:17:43;;;;;;;0.30;0.30;;;;;;;;;;4955606;28;20278;-80
2020/12/22 12:20:09;;;;;;;0.57;0.27;;;;;;;;;;4957099;28;20187;-79
2020/12/22 12:22:36;;;;;;;0.60;0.40;;;;;;;;;;4956516;28;20188;-80
2020/12/22 12:25:02;;;;;;;1.17;0.50;;;;;;;;;;4958687;28;20208;-80
2020/12/22 12:27:29;;;;;;;1.77;0.40;;;;;;;;;;4966910;28;20204;-80
2020/12/22 12:29:55;;;;;;;0.60;0.40;;;;;;;;;;4959024;28;20274;-81
2020/12/22 12:32:29;;;;;;;0.40;0.40;;;;;;;;;;4959329;28;20211;-81
2020/12/22 12:34:55;;;;;;;0.40;0.20;;;;;;;;;;4960343;28;20184;-81
2020/12/22 12:37:21;;;;;;;1.53;0.30;;;;;;;;;;4959463;28;20214;-81
2020/12/22 12:39:47;;;;;;;0.30;0.30;;;;;;;;;;4961289;28;20266;-80
2020/12/22 12:42:13;;;;;;;1.07;0.47;;;;;;;;;;4960998;28;20214;-80
2020/12/22 12:44:39;;;;;;;0.27;0.27;;;14.00;99.90;;;;;;4959340;28;20189;-79
2020/12/22 12:47:04;;;;;;;0.77;0.40;;;13.90;99.90;;;;;;4957972;28;20236;-80
2020/12/22 12:49:30;;;;;;;0.93;0.30;;;13.90;99.90;;;;;;4950809;28;20176;-80
2020/12/22 12:51:56;;;;;;;0.60;0.50;;;13.80;99.90;;;;;;4948879;28;20188;-79
2020/12/22 12:54:21;;;;;;;0.30;0.30;;;13.80;99.90;;;;;;4960045;28;20302;-79
2020/12/22 12:56:48;;;;;;;0.47;0.30;;;13.80;99.90;;;;;;4959481;28;20289;-80
2020/12/22 12:59:15;;;;;;;0.50;0.47;;;13.80;99.90;;;;;;4960553;28;20287;-79
2020/12/22 13:01:41;;;;;;;0.60;0.57;;;13.70;99.90;;;;;;4960712;28;20216;-80
2020/12/22 13:04:08;;;;;;;0.87;0.40;;;13.70;99.90;;;;;;4960833;28;20235;-81
2020/12/22 13:06:36;;;;;;;0.40;0.37;;;13.70;99.90;;;;;;4959906;28;20771;-80
2020/12/22 13:09:01;;;;;;;0.87;0.70;;;13.70;99.90;;;;;;4980488;23;20259;-74
2020/12/22 13:11:30;;;;;;;0.50;0.50;;;13.70;99.90;;;;;;4956644;28;20633;-75
2020/12/22 13:13:56;;;;;;;1.10;0.93;;;13.70;99.90;;;;;;4973773;28;20605;-74
2020/12/22 13:16:22;;;;;;;2.00;0.80;;;13.70;99.90;;;;;;4958942;28;20187;-76
2020/12/22 13:18:48;;;;;;;0.40;0.40;;;13.70;99.90;;;;;;4970366;28;20310;-77